Terminal Aerodrome Forecast
Issued by NWS

Home | Current Version | Previous Version | Text Only | Print | Product List | Glossary On
Versions: 1 2 3 4 5 6 7 8 9 10 11 12 13 14 15 16 17 18 19 20 21 22 23 24
191
FTUS43 KLSX 280912 AAA
TAFCPS
TAF AMD
KCPS 280912Z 2809/2906 20004KT P6SM OVC250
      TEMPO 2812/2815 5SM BR BKN010
     FM281500 29006KT P6SM BKN030
     FM281900 29009KT P6SM BKN035
     FM290000 29005KT P6SM FEW250=

USA.gov is the U.S. government's official web portal to all federal, state and local government web resources and services.